createdAt,value
2018-07-27T00:01:58.186Z,4.80
2018-07-27T00:04:26.708Z,4.40
2018-07-27T00:06:55.064Z,4.37
2018-07-27T00:09:23.631Z,4.58
2018-07-27T00:11:51.977Z,4.20
2018-07-27T00:14:20.344Z,4.50
2018-07-27T00:16:48.706Z,4.40
2018-07-27T00:19:17.066Z,4.60
2018-07-27T00:21:45.426Z,4.60
2018-07-27T00:24:13.790Z,4.47
2018-07-27T00:26:42.144Z,4.60
2018-07-27T00:29:10.521Z,4.30
2018-07-27T00:31:38.892Z,4.53
2018-07-27T00:34:07.235Z,4.83
2018-07-27T00:36:35.691Z,4.75
2018-07-27T00:39:06.277Z,4.50
2018-07-27T00:41:34.907Z,4.92
2018-07-27T00:44:03.436Z,4.95
2018-07-27T00:46:31.830Z,4.58
2018-07-27T00:49:00.412Z,4.70
2018-07-27T00:51:28.816Z,4.60
2018-07-27T00:53:57.172Z,4.55
2018-07-27T00:56:26.169Z,4.87
2018-07-27T00:58:54.557Z,4.62
2018-07-27T01:01:22.895Z,4.87
2018-07-27T01:03:51.292Z,4.90
2018-07-27T01:06:19.633Z,4.90
2018-07-27T01:08:54.778Z,4.97
2018-07-27T01:11:23.151Z,4.80
2018-07-27T01:13:51.713Z,5.22
2018-07-27T01:16:20.232Z,4.53
2018-07-27T01:18:48.597Z,4.78
2018-07-27T01:21:16.976Z,4.55
2018-07-27T01:23:45.838Z,4.95
2018-07-27T01:26:14.207Z,4.72
2018-07-27T01:28:42.888Z,4.97
2018-07-27T01:31:11.266Z,5.00
2018-07-27T01:33:39.612Z,5.22
2018-07-27T01:36:07.975Z,5.28
2018-07-27T01:38:36.319Z,4.95
2018-07-27T01:41:04.717Z,5.22
2018-07-27T01:43:33.751Z,5.62
2018-07-27T01:46:02.241Z,4.75
2018-07-27T01:48:30.613Z,4.90
2018-07-27T01:50:58.994Z,5.40
2018-07-27T01:53:27.369Z,5.15
2018-07-27T01:55:55.738Z,5.35
2018-07-27T01:58:24.126Z,5.30
2018-07-27T02:00:52.457Z,5.17
2018-07-27T02:03:20.854Z,5.20
2018-07-27T02:05:49.270Z,5.47
2018-07-27T02:08:17.743Z,5.85
2018-07-27T02:10:46.117Z,5.20
2018-07-27T02:13:14.564Z,5.87
2018-07-27T02:15:42.900Z,5.37
2018-07-27T02:18:11.361Z,5.85
2018-07-27T02:20:39.705Z,5.10
2018-07-27T02:23:08.071Z,5.50
2018-07-27T02:25:36.471Z,5.15
2018-07-27T02:28:04.799Z,5.37
2018-07-27T02:30:33.210Z,5.47
2018-07-27T02:33:01.556Z,5.00
2018-07-27T02:35:29.943Z,5.53
2018-07-27T02:37:58.395Z,5.65
2018-07-27T02:40:26.758Z,5.75
2018-07-27T02:42:55.117Z,5.37
2018-07-27T02:45:23.573Z,5.60
2018-07-27T02:47:51.939Z,5.58
2018-07-27T02:50:20.831Z,5.08
2018-07-27T02:52:49.213Z,5.55
2018-07-27T02:55:17.804Z,5.58
2018-07-27T02:57:46.222Z,5.55
2018-07-27T03:00:14.693Z,5.65
2018-07-27T03:02:43.056Z,5.10
2018-07-27T03:05:11.406Z,5.30
2018-07-27T03:07:39.832Z,5.67
2018-07-27T03:10:08.349Z,5.72
2018-07-27T03:12:36.713Z,5.62
2018-07-27T03:15:06.066Z,5.55
2018-07-27T03:17:34.477Z,5.72
2018-07-27T03:20:02.900Z,5.60
2018-07-27T03:22:32.211Z,5.60
2018-07-27T03:25:01.161Z,5.75
2018-07-27T03:27:29.651Z,5.45
2018-07-27T03:29:58.222Z,5.70
2018-07-27T03:32:26.569Z,5.62
2018-07-27T03:34:54.935Z,5.90
2018-07-27T03:37:23.323Z,5.78
2018-07-27T03:39:51.688Z,5.85
2018-07-27T03:42:20.039Z,5.92
2018-07-27T03:44:48.414Z,5.45
2018-07-27T03:47:16.774Z,5.33
2018-07-27T03:49:45.167Z,5.45
2018-07-27T03:52:13.540Z,5.67
2018-07-27T03:54:41.895Z,5.87
2018-07-27T03:57:10.235Z,5.95
2018-07-27T03:59:38.598Z,5.72
2018-07-27T04:02:07.070Z,5.42
2018-07-27T04:04:36.063Z,6.08
2018-07-27T04:07:04.429Z,6.22
2018-07-27T04:09:32.783Z,6.40
2018-07-27T04:12:01.159Z,6.10
2018-07-27T04:14:29.543Z,5.50
2018-07-27T04:16:57.907Z,5.28
2018-07-27T04:19:26.250Z,5.87
2018-07-27T04:21:54.617Z,5.67
2018-07-27T04:24:22.965Z,6.15
2018-07-27T04:26:51.321Z,5.90
2018-07-27T04:29:19.667Z,6.10
2018-07-27T04:31:48.044Z,6.25
2018-07-27T04:34:16.417Z,6.05
2018-07-27T04:36:44.777Z,7.17
2018-07-27T04:39:13.125Z,6.95
2018-07-27T04:41:41.509Z,6.87
2018-07-27T04:44:09.887Z,7.20
2018-07-27T04:46:38.315Z,6.67
2018-07-27T04:49:06.784Z,6.28
2018-07-27T04:51:35.128Z,6.58
2018-07-27T04:54:03.712Z,8.50
2018-07-27T04:56:32.109Z,6.37
2018-07-27T04:59:00.475Z,6.25
2018-07-27T05:01:28.971Z,6.75
2018-07-27T05:03:57.912Z,6.25
2018-07-27T05:06:26.235Z,6.37
2018-07-27T05:08:59.937Z,9.75
2018-07-27T05:11:28.303Z,6.47
2018-07-27T05:13:56.658Z,5.87
2018-07-27T05:16:25.047Z,6.10
2018-07-27T05:18:53.426Z,6.35
2018-07-27T05:21:21.789Z,6.22
2018-07-27T05:23:50.127Z,6.50
2018-07-27T05:26:18.464Z,7.12
2018-07-27T05:28:46.823Z,8.40
2018-07-27T05:31:15.181Z,6.05
2018-07-27T05:33:43.539Z,5.90
2018-07-27T05:36:11.881Z,5.65
2018-07-27T05:38:40.257Z,5.80
2018-07-27T05:41:08.596Z,6.22
2018-07-27T05:43:37.322Z,5.97
2018-07-27T05:46:05.999Z,5.78
2018-07-27T05:48:34.531Z,6.70
2018-07-27T05:51:02.870Z,5.92
2018-07-27T05:53:31.240Z,6.10
2018-07-27T05:55:59.615Z,5.53
2018-07-27T05:58:27.992Z,5.37
2018-07-27T06:00:56.358Z,5.67
2018-07-27T06:03:24.732Z,5.37
2018-07-27T06:05:53.189Z,5.58
2018-07-27T06:08:21.636Z,5.60
2018-07-27T06:10:49.995Z,5.22
2018-07-27T06:13:18.844Z,5.40
2018-07-27T06:15:47.275Z,5.60
2018-07-27T06:18:16.357Z,5.60
2018-07-27T06:20:44.715Z,5.40
2018-07-27T06:23:13.250Z,5.47
2018-07-27T06:25:41.662Z,5.20
2018-07-27T06:28:10.127Z,5.60
2018-07-27T06:30:38.459Z,5.30
2018-07-27T06:33:06.830Z,5.30
2018-07-27T06:35:35.200Z,5.75
2018-07-27T06:38:10.136Z,5.00
2018-07-27T06:40:38.554Z,4.90
2018-07-27T06:43:06.979Z,5.20
2018-07-27T06:45:35.348Z,5.80
2018-07-27T06:48:03.740Z,5.47
2018-07-27T06:50:32.133Z,5.50
2018-07-27T06:53:00.617Z,5.20
2018-07-27T06:55:29.452Z,5.20
2018-07-27T06:57:57.881Z,5.20
2018-07-27T07:00:26.851Z,5.58
2018-07-27T07:02:55.262Z,5.35
2018-07-27T07:05:23.756Z,5.85
2018-07-27T07:07:52.277Z,5.53
2018-07-27T07:10:21.239Z,5.22
2018-07-27T07:12:49.694Z,5.15
2018-07-27T07:15:17.791Z,5.80
2018-07-27T07:17:46.161Z,5.65
2018-07-27T07:20:14.653Z,5.60
2018-07-27T07:22:43.173Z,6.12
2018-07-27T07:25:11.818Z,5.05
2018-07-27T07:27:40.134Z,5.08
2018-07-27T07:30:08.516Z,5.28
2018-07-27T07:32:36.905Z,5.42
2018-07-27T07:35:06.061Z,5.12
2018-07-27T07:37:34.434Z,5.30
2018-07-27T07:40:02.840Z,5.72
2018-07-27T07:42:31.187Z,5.40
2018-07-27T07:44:59.608Z,5.87
2018-07-27T07:47:27.954Z,5.42
2018-07-27T07:49:56.331Z,5.25
2018-07-27T07:52:24.754Z,5.60
2018-07-27T07:54:53.968Z,5.97
2018-07-27T07:57:22.375Z,5.75
2018-07-27T07:59:50.759Z,5.65
2018-07-27T08:02:19.204Z,6.05
2018-07-27T08:04:47.634Z,6.25
2018-07-27T08:07:16.046Z,5.62
2018-07-27T08:09:45.079Z,5.50
2018-07-27T08:12:13.448Z,6.70
2018-07-27T08:14:41.826Z,6.05
2018-07-27T08:17:10.212Z,6.10
2018-07-27T08:19:38.591Z,5.92
2018-07-27T08:22:07.610Z,6.08
2018-07-27T08:24:35.939Z,5.95
2018-07-27T08:27:05.516Z,6.20
2018-07-27T08:29:41.357Z,5.70
2018-07-27T08:32:10.073Z,5.65
2018-07-27T08:34:38.720Z,5.17
2018-07-27T08:37:07.432Z,5.25
2018-07-27T08:39:37.311Z,5.10
2018-07-27T08:42:06.276Z,5.80
2018-07-27T08:44:36.859Z,5.33
2018-07-27T08:47:05.318Z,5.28
2018-07-27T08:49:33.515Z,5.08
2018-07-27T08:52:01.898Z,4.83
2018-07-27T08:54:30.385Z,5.03
2018-07-27T08:56:58.772Z,5.05
2018-07-27T08:59:27.334Z,4.78
2018-07-27T09:01:55.827Z,4.53
2018-07-27T09:04:24.245Z,4.80
2018-07-27T09:06:52.598Z,4.95
2018-07-27T09:09:21.261Z,4.97
2018-07-27T09:11:49.639Z,4.65
2018-07-27T09:14:18.673Z,5.10
2018-07-27T09:16:47.040Z,4.80
2018-07-27T09:19:15.510Z,5.35
2018-07-27T09:21:44.464Z,4.00
2018-07-27T09:24:13.011Z,4.90
2018-07-27T09:26:41.402Z,4.87
2018-07-27T09:29:09.804Z,4.58
2018-07-27T09:31:38.195Z,4.70
2018-07-27T09:34:06.715Z,4.33
2018-07-27T09:36:35.179Z,4.53
2018-07-27T09:39:03.789Z,4.80
2018-07-27T09:41:32.160Z,5.70
2018-07-27T09:44:00.522Z,12.03
2018-07-27T09:46:28.934Z,5.70
2018-07-27T09:48:57.366Z,5.37
2018-07-27T09:51:25.921Z,5.35
2018-07-27T09:53:54.395Z,5.20
2018-07-27T09:56:22.858Z,5.00
2018-07-27T09:58:51.382Z,4.83
2018-07-27T10:01:25.229Z,5.22
2018-07-27T10:03:54.879Z,5.00
2018-07-27T10:06:24.231Z,4.60
2018-07-27T10:08:52.589Z,4.80
2018-07-27T10:11:21.394Z,5.30
2018-07-27T10:13:50.270Z,4.53
2018-07-27T10:16:19.849Z,4.97
2018-07-27T10:18:48.191Z,4.83
2018-07-27T10:21:16.554Z,5.00
2018-07-27T10:23:44.959Z,4.80
2018-07-27T10:26:13.400Z,5.10
2018-07-27T10:28:41.763Z,5.17
2018-07-27T10:31:10.279Z,4.83
2018-07-27T10:33:38.604Z,4.85
2018-07-27T10:36:07.007Z,5.10
2018-07-27T10:38:35.699Z,4.65
2018-07-27T10:41:04.158Z,4.87
2018-07-27T10:43:32.536Z,4.95
2018-07-27T10:46:00.886Z,5.58
2018-07-27T10:48:29.306Z,5.05
2018-07-27T10:50:57.686Z,5.20
2018-07-27T10:53:26.056Z,4.78
2018-07-27T10:55:54.547Z,4.75
2018-07-27T10:58:22.945Z,5.00
2018-07-27T11:00:51.302Z,5.15
2018-07-27T11:03:19.711Z,4.95
2018-07-27T11:05:48.124Z,5.10
2018-07-27T11:08:16.792Z,4.85
2018-07-27T11:10:45.334Z,4.60
2018-07-27T11:13:13.742Z,4.60
2018-07-27T11:15:42.335Z,4.80
2018-07-27T11:18:10.718Z,4.70
2018-07-27T11:20:39.075Z,4.50
2018-07-27T11:23:07.762Z,4.70
2018-07-27T11:25:36.173Z,4.40
2018-07-27T11:28:04.583Z,4.40
2018-07-27T11:30:32.986Z,4.55
2018-07-27T11:33:01.379Z,4.65
2018-07-27T11:35:29.767Z,4.40
2018-07-27T11:37:58.137Z,4.55
2018-07-27T11:40:26.537Z,4.22
2018-07-27T11:42:54.922Z,4.90
2018-07-27T11:45:23.327Z,4.40
2018-07-27T11:47:51.784Z,5.03
2018-07-27T11:50:20.192Z,4.53
2018-07-27T11:52:49.202Z,4.58
2018-07-27T11:55:17.331Z,4.90
2018-07-27T11:57:45.735Z,5.10
2018-07-27T12:00:15.277Z,5.80
2018-07-27T12:02:43.680Z,5.17
2018-07-27T12:05:12.118Z,4.92
2018-07-27T12:07:41.061Z,4.92
2018-07-27T12:10:09.447Z,5.50
2018-07-27T12:12:37.807Z,4.87
2018-07-27T12:15:06.429Z,5.00
2018-07-27T12:17:34.570Z,4.72
2018-07-27T12:20:02.947Z,5.08
2018-07-27T12:22:31.336Z,5.53
2018-07-27T12:24:59.794Z,5.10
2018-07-27T12:27:29.031Z,4.90
2018-07-27T12:29:57.394Z,4.70
2018-07-27T12:32:25.803Z,5.33
2018-07-27T12:34:54.449Z,5.15
2018-07-27T12:37:23.596Z,5.50
2018-07-27T12:39:52.114Z,5.28
2018-07-27T12:42:20.483Z,5.25
2018-07-27T12:44:48.873Z,5.30
2018-07-27T12:47:17.251Z,5.03
2018-07-27T12:49:45.632Z,5.42
2018-07-27T12:52:13.716Z,5.08
2018-07-27T12:54:42.057Z,5.17
2018-07-27T12:57:10.444Z,4.87
2018-07-27T12:59:38.811Z,5.03
2018-07-27T13:02:07.323Z,4.65
2018-07-27T13:04:35.724Z,5.00
2018-07-27T13:07:04.117Z,5.03
2018-07-27T13:09:32.647Z,4.92
2018-07-27T13:12:01.002Z,5.87
2018-07-27T13:14:29.357Z,6.33
2018-07-27T13:16:57.751Z,5.30
2018-07-27T13:19:26.191Z,5.17
2018-07-27T13:21:54.588Z,5.20
2018-07-27T13:26:51.362Z,4.80
2018-07-27T13:29:19.739Z,4.80
2018-07-27T13:31:50.854Z,4.17
2018-07-27T13:34:44.492Z,4.55
2018-07-27T13:37:12.960Z,4.42
2018-07-27T13:39:42.118Z,4.25
2018-07-27T13:42:16.747Z,5.03
2018-07-27T13:44:45.417Z,4.87
2018-07-27T13:47:14.224Z,5.08
2018-07-27T13:49:42.664Z,4.97
2018-07-27T13:52:11.128Z,4.95
2018-07-27T13:54:39.493Z,5.28
2018-07-27T13:57:08.083Z,5.33
2018-07-27T13:59:36.512Z,4.97
2018-07-27T14:02:04.966Z,5.80
2018-07-27T14:04:33.141Z,4.40
2018-07-27T14:07:02.640Z,4.65
2018-07-27T14:09:31.025Z,4.58
2018-07-27T14:11:59.570Z,4.75
2018-07-27T14:14:27.931Z,5.00
2018-07-27T14:16:56.403Z,4.65
2018-07-27T14:19:25.404Z,4.65
2018-07-27T14:21:53.819Z,4.58
2018-07-27T14:24:22.261Z,4.75
2018-07-27T14:26:50.600Z,4.70
2018-07-27T14:29:19.103Z,4.22
2018-07-27T14:31:47.363Z,4.30
2018-07-27T14:34:15.823Z,4.40
2018-07-27T14:36:44.879Z,4.35
2018-07-27T14:39:15.281Z,4.42
2018-07-27T14:41:43.948Z,4.87
2018-07-27T14:44:12.349Z,4.40
2018-07-27T14:46:40.731Z,4.40
2018-07-27T14:49:13.294Z,4.33
2018-07-27T14:51:42.205Z,4.62
2018-07-27T14:54:11.836Z,4.83
2018-07-27T14:56:40.893Z,4.62
2018-07-27T15:00:50.117Z,4.55
2018-07-27T15:03:18.457Z,4.58
2018-07-27T15:05:46.842Z,4.50
2018-07-27T15:08:15.461Z,4.25
2018-07-27T15:10:43.835Z,4.25
2018-07-27T15:13:12.552Z,4.50
2018-07-27T15:15:41.507Z,4.62
2018-07-27T15:18:09.896Z,4.87
2018-07-27T15:20:38.447Z,4.25
2018-07-27T15:23:06.788Z,4.25
